<?xml version="1.0" encoding="UTF-8" standalone="no" ?>
<gpx xmlns="http://www.topografix.com/GPX/1/1" xmlns:xsi="http://www.w3.org/2001/XMLSchema-instance" xsi:schemaLocation="http://www.topografix.com/GPX/1/1 http://www.topografix.com/GPX/1/1/gpx.xsd" version="1.1" creator="VisuGPX - https://www.visugpx.com">
  <metadata>
    <name>Raccords des Ravins autour de La Citée De Pierres</name>
    <desc><![CDATA[Attention : Montpellier Le Vieux c'est privé ! et c'est payant en saison ...]]></desc>
  </metadata>
  <trk>
    <name><![CDATA[Raccord Le Bouxes / La Combe]]></name>
    <desc><![CDATA[Un portage peu après avoir quitté le début du Bouxes . Mais la suite vaut le coup (vue sur la Citée & très jolie baume aménagée d'un puits et d'une vasque) . Tout passe sur le vélo ensuite .
]]></desc>
    <extensions>
      <line xmlns="http://www.topografix.com/GPX/gpx_style/0/2">
        <color>ff8000</color>
        <width>4</width>
          <extensions>
            <sens>1</sens>
          </extensions>
      </line>
    </extensions>
    <trkseg>
      <trkpt lat="44.14553" lon="3.20915">
        <ele>716.6</ele>
        <time>2024-11-28T15:27:19.093Z</time>
      </trkpt>
      <trkpt lat="44.14548" lon="3.20913">
        <ele>716</ele>
        <time>2024-11-28T15:27:21.000Z</time>
      </trkpt>
      <trkpt lat="44.14538" lon="3.20915">
        <ele>717</ele>
        <time>2024-11-28T15:27:33.000Z</time>
      </trkpt>
      <trkpt lat="44.14529" lon="3.20912">
        <ele>717</ele>
        <time>2024-11-28T15:27:41.000Z</time>
      </trkpt>
      <trkpt lat="44.14519" lon="3.20913">
        <ele>718</ele>
        <time>2024-11-28T15:27:49.000Z</time>
      </trkpt>
      <trkpt lat="44.14508" lon="3.20915">
        <ele>719</ele>
        <time>2024-11-28T15:27:57.000Z</time>
      </trkpt>
      <trkpt lat="44.14497" lon="3.20927">
        <ele>720</ele>
        <time>2024-11-28T15:28:05.000Z</time>
      </trkpt>
      <trkpt lat="44.14491" lon="3.2094">
        <ele>721</ele>
        <time>2024-11-28T15:28:13.000Z</time>
      </trkpt>
      <trkpt lat="44.14499" lon="3.20931">
        <ele>724</ele>
        <time>2024-11-28T15:28:37.000Z</time>
      </trkpt>
      <trkpt lat="44.14501" lon="3.20917">
        <ele>725</ele>
        <time>2024-11-28T15:28:45.000Z</time>
      </trkpt>
      <trkpt lat="44.14506" lon="3.20906">
        <ele>726</ele>
        <time>2024-11-28T15:28:53.000Z</time>
      </trkpt>
      <trkpt lat="44.14515" lon="3.2089">
        <ele>728</ele>
        <time>2024-11-28T15:29:05.000Z</time>
      </trkpt>
      <trkpt lat="44.14515" lon="3.20875">
        <ele>728</ele>
        <time>2024-11-28T15:29:09.000Z</time>
      </trkpt>
      <trkpt lat="44.14513" lon="3.20859">
        <ele>728</ele>
        <time>2024-11-28T15:29:13.000Z</time>
      </trkpt>
      <trkpt lat="44.14513" lon="3.20846">
        <ele>729</ele>
        <time>2024-11-28T15:29:17.000Z</time>
      </trkpt>
      <trkpt lat="44.14504" lon="3.20837">
        <ele>729</ele>
        <time>2024-11-28T15:29:25.000Z</time>
      </trkpt>
      <trkpt lat="44.14491" lon="3.20844">
        <ele>729</ele>
        <time>2024-11-28T15:29:33.000Z</time>
      </trkpt>
      <trkpt lat="44.1448" lon="3.20855">
        <ele>729</ele>
        <time>2024-11-28T15:29:45.000Z</time>
      </trkpt>
      <trkpt lat="44.1447" lon="3.20862">
        <ele>751.5</ele>
        <time>2024-11-28T15:30:47.000Z</time>
      </trkpt>
      <trkpt lat="44.14461" lon="3.20866">
        <ele>751.4</ele>
        <time>2024-11-28T15:30:49.000Z</time>
      </trkpt>
      <trkpt lat="44.14448" lon="3.20867">
        <ele>751.1</ele>
        <time>2024-11-28T15:30:52.000Z</time>
      </trkpt>
      <trkpt lat="44.14438" lon="3.20862">
        <ele>750.4</ele>
        <time>2024-11-28T15:30:55.000Z</time>
      </trkpt>
      <trkpt lat="44.14429" lon="3.20856">
        <ele>749.8</ele>
        <time>2024-11-28T15:30:57.000Z</time>
      </trkpt>
      <trkpt lat="44.14418" lon="3.20852">
        <ele>749.3</ele>
        <time>2024-11-28T15:30:59.000Z</time>
      </trkpt>
      <trkpt lat="44.14406" lon="3.20848">
        <ele>748.5</ele>
        <time>2024-11-28T15:31:01.000Z</time>
      </trkpt>
      <trkpt lat="44.14395" lon="3.20839">
        <ele>747.7</ele>
        <time>2024-11-28T15:31:03.000Z</time>
      </trkpt>
      <trkpt lat="44.14382" lon="3.20832">
        <ele>746.7</ele>
        <time>2024-11-28T15:31:05.000Z</time>
      </trkpt>
      <trkpt lat="44.14369" lon="3.20834">
        <ele>745.7</ele>
        <time>2024-11-28T15:31:07.000Z</time>
      </trkpt>
      <trkpt lat="44.1436" lon="3.2084">
        <ele>744.5</ele>
        <time>2024-11-28T15:31:09.000Z</time>
      </trkpt>
      <trkpt lat="44.14351" lon="3.20842">
        <ele>741.4</ele>
        <time>2024-11-28T15:31:14.000Z</time>
      </trkpt>
      <trkpt lat="44.14349" lon="3.20828">
        <ele>739.1</ele>
        <time>2024-11-28T15:31:18.000Z</time>
      </trkpt>
      <trkpt lat="44.14349" lon="3.20815">
        <ele>737.4</ele>
        <time>2024-11-28T15:31:21.000Z</time>
      </trkpt>
      <trkpt lat="44.14345" lon="3.20802">
        <ele>735.9</ele>
        <time>2024-11-28T15:31:24.000Z</time>
      </trkpt>
      <trkpt lat="44.1434" lon="3.20788">
        <ele>734.4</ele>
        <time>2024-11-28T15:31:27.000Z</time>
      </trkpt>
      <trkpt lat="44.14328" lon="3.20786">
        <ele>732.6</ele>
        <time>2024-11-28T15:31:30.000Z</time>
      </trkpt>
      <trkpt lat="44.14316" lon="3.20783">
        <ele>731.4</ele>
        <time>2024-11-28T15:31:32.000Z</time>
      </trkpt>
      <trkpt lat="44.14305" lon="3.20778">
        <ele>729.6</ele>
        <time>2024-11-28T15:31:35.000Z</time>
      </trkpt>
      <trkpt lat="44.14296" lon="3.20768">
        <ele>727.9</ele>
        <time>2024-11-28T15:31:38.000Z</time>
      </trkpt>
      <trkpt lat="44.14288" lon="3.20762">
        <ele>726.9</ele>
        <time>2024-11-28T15:31:40.000Z</time>
      </trkpt>
      <trkpt lat="44.14279" lon="3.20759">
        <ele>726</ele>
        <time>2024-11-28T15:31:42.000Z</time>
      </trkpt>
      <trkpt lat="44.1427" lon="3.20762">
        <ele>724.6</ele>
        <time>2024-11-28T15:31:45.000Z</time>
      </trkpt>
      <trkpt lat="44.14261" lon="3.2077">
        <ele>723.5</ele>
        <time>2024-11-28T15:31:48.000Z</time>
      </trkpt>
      <trkpt lat="44.1425" lon="3.20776">
        <ele>722.4</ele>
        <time>2024-11-28T15:31:51.000Z</time>
      </trkpt>
      <trkpt lat="44.1424" lon="3.20781">
        <ele>721.1</ele>
        <time>2024-11-28T15:31:55.000Z</time>
      </trkpt>
      <trkpt lat="44.14227" lon="3.20781">
        <ele>720.1</ele>
        <time>2024-11-28T15:31:58.000Z</time>
      </trkpt>
      <trkpt lat="44.14217" lon="3.20783">
        <ele>719.5</ele>
        <time>2024-11-28T15:32:00.000Z</time>
      </trkpt>
      <trkpt lat="44.14205" lon="3.20787">
        <ele>718.6</ele>
        <time>2024-11-28T15:32:02.000Z</time>
      </trkpt>
      <trkpt lat="44.14191" lon="3.20792">
        <ele>717.7</ele>
        <time>2024-11-28T15:32:04.000Z</time>
      </trkpt>
      <trkpt lat="44.14178" lon="3.20801">
        <ele>716.6</ele>
        <time>2024-11-28T15:32:06.000Z</time>
      </trkpt>
      <trkpt lat="44.14165" lon="3.20804">
        <ele>715.7</ele>
        <time>2024-11-28T15:32:08.000Z</time>
      </trkpt>
      <trkpt lat="44.14155" lon="3.20809">
        <ele>714.8</ele>
        <time>2024-11-28T15:32:10.000Z</time>
      </trkpt>
      <trkpt lat="44.14144" lon="3.20815">
        <ele>714</ele>
        <time>2024-11-28T15:32:12.000Z</time>
      </trkpt>
      <trkpt lat="44.14135" lon="3.20821">
        <ele>713.2</ele>
        <time>2024-11-28T15:32:14.000Z</time>
      </trkpt>
      <trkpt lat="44.14125" lon="3.20828">
        <ele>712.4</ele>
        <time>2024-11-28T15:32:16.000Z</time>
      </trkpt>
      <trkpt lat="44.14117" lon="3.20833">
        <ele>711.5</ele>
        <time>2024-11-28T15:32:18.000Z</time>
      </trkpt>
      <trkpt lat="44.14106" lon="3.20833">
        <ele>710.7</ele>
        <time>2024-11-28T15:32:20.000Z</time>
      </trkpt>
      <trkpt lat="44.14095" lon="3.20836">
        <ele>709.8</ele>
        <time>2024-11-28T15:32:22.000Z</time>
      </trkpt>
      <trkpt lat="44.14086" lon="3.20839">
        <ele>709.1</ele>
        <time>2024-11-28T15:32:24.000Z</time>
      </trkpt>
      <trkpt lat="44.14077" lon="3.20845">
        <ele>708.4</ele>
        <time>2024-11-28T15:32:26.000Z</time>
      </trkpt>
      <trkpt lat="44.14067" lon="3.20848">
        <ele>708</ele>
        <time>2024-11-28T15:32:27.000Z</time>
      </trkpt>
      <trkpt lat="44.14026" lon="3.20861">
        <ele>706</ele>
        <time>2024-11-28T15:32:33.000Z</time>
      </trkpt>
      <trkpt lat="44.14014" lon="3.20878">
        <ele>705.3</ele>
        <time>2024-11-28T15:32:38.000Z</time>
      </trkpt>
      <trkpt lat="44.14007" lon="3.20886">
        <ele>704.9</ele>
        <time>2024-11-28T15:32:41.000Z</time>
      </trkpt>
      <trkpt lat="44.13998" lon="3.20894">
        <ele>704.3</ele>
        <time>2024-11-28T15:32:44.000Z</time>
      </trkpt>
      <trkpt lat="44.13988" lon="3.20887">
        <ele>703.8</ele>
        <time>2024-11-28T15:32:47.000Z</time>
      </trkpt>
      <trkpt lat="44.13979" lon="3.20903">
        <ele>700.7</ele>
        <time>2024-11-28T15:33:54.000Z</time>
      </trkpt>
      <trkpt lat="44.13972" lon="3.20917">
        <ele>700.6</ele>
        <time>2024-11-28T15:33:56.000Z</time>
      </trkpt>
      <trkpt lat="44.13964" lon="3.20932">
        <ele>700.3</ele>
        <time>2024-11-28T15:33:59.000Z</time>
      </trkpt>
      <trkpt lat="44.13956" lon="3.2094">
        <ele>700</ele>
        <time>2024-11-28T15:34:01.000Z</time>
      </trkpt>
      <trkpt lat="44.13946" lon="3.20949">
        <ele>699.4</ele>
        <time>2024-11-28T15:34:04.000Z</time>
      </trkpt>
      <trkpt lat="44.13937" lon="3.20958">
        <ele>699</ele>
        <time>2024-11-28T15:34:07.000Z</time>
      </trkpt>
      <trkpt lat="44.13931" lon="3.20969">
        <ele>698.4</ele>
        <time>2024-11-28T15:34:12.000Z</time>
      </trkpt>
      <trkpt lat="44.13922" lon="3.20976">
        <ele>698</ele>
        <time>2024-11-28T15:34:18.000Z</time>
      </trkpt>
      <trkpt lat="44.13913" lon="3.2098">
        <ele>697.9</ele>
        <time>2024-11-28T15:34:21.000Z</time>
      </trkpt>
      <trkpt lat="44.139" lon="3.20987">
        <ele>697.8</ele>
        <time>2024-11-28T15:34:24.000Z</time>
      </trkpt>
      <trkpt lat="44.13889" lon="3.20997">
        <ele>697.3</ele>
        <time>2024-11-28T15:34:27.000Z</time>
      </trkpt>
      <trkpt lat="44.1388" lon="3.20991">
        <ele>695.8</ele>
        <time>2024-11-28T15:34:32.000Z</time>
      </trkpt>
      <trkpt lat="44.13871" lon="3.20985">
        <ele>694.7</ele>
        <time>2024-11-28T15:34:36.000Z</time>
      </trkpt>
      <trkpt lat="44.13863" lon="3.20978">
        <ele>693.7</ele>
        <time>2024-11-28T15:34:39.000Z</time>
      </trkpt>
      <trkpt lat="44.13848" lon="3.20979">
        <ele>692.7</ele>
        <time>2024-11-28T15:34:43.000Z</time>
      </trkpt>
      <trkpt lat="44.13838" lon="3.20986">
        <ele>692</ele>
        <time>2024-11-28T15:34:46.000Z</time>
      </trkpt>
      <trkpt lat="44.13829" lon="3.20994">
        <ele>691</ele>
        <time>2024-11-28T15:34:49.000Z</time>
      </trkpt>
      <trkpt lat="44.13821" lon="3.21">
        <ele>689.7</ele>
        <time>2024-11-28T15:34:54.000Z</time>
      </trkpt>
      <trkpt lat="44.13811" lon="3.21001">
        <ele>688.5</ele>
        <time>2024-11-28T15:34:59.000Z</time>
      </trkpt>
      <trkpt lat="44.13805" lon="3.20991">
        <ele>686.4</ele>
        <time>2024-11-28T15:35:10.000Z</time>
      </trkpt>
      <trkpt lat="44.1381" lon="3.20978">
        <ele>685.1</ele>
        <time>2024-11-28T15:35:16.000Z</time>
      </trkpt>
      <trkpt lat="44.13817" lon="3.20967">
        <ele>684.4</ele>
        <time>2024-11-28T15:35:22.000Z</time>
      </trkpt>
      <trkpt lat="44.13819" lon="3.20953">
        <ele>684.4</ele>
        <time>2024-11-28T15:35:27.000Z</time>
      </trkpt>
      <trkpt lat="44.13821" lon="3.20939">
        <ele>684.5</ele>
        <time>2024-11-28T15:35:32.000Z</time>
      </trkpt>
      <trkpt lat="44.13824" lon="3.20927">
        <ele>684.7</ele>
        <time>2024-11-28T15:35:37.000Z</time>
      </trkpt>
      <trkpt lat="44.13825" lon="3.20914">
        <ele>684.9</ele>
        <time>2024-11-28T15:35:43.000Z</time>
      </trkpt>
      <trkpt lat="44.13828" lon="3.20901">
        <ele>685.4</ele>
        <time>2024-11-28T15:35:54.000Z</time>
      </trkpt>
      <trkpt lat="44.13835" lon="3.20893">
        <ele>686.1</ele>
        <time>2024-11-28T15:36:03.000Z</time>
      </trkpt>
      <trkpt lat="44.13842" lon="3.20883">
        <ele>686.9</ele>
        <time>2024-11-28T15:36:13.000Z</time>
      </trkpt>
      <trkpt lat="44.13851" lon="3.20876">
        <ele>687.5</ele>
        <time>2024-11-28T15:36:19.000Z</time>
      </trkpt>
      <trkpt lat="44.13859" lon="3.20867">
        <ele>688</ele>
        <time>2024-11-28T15:36:25.000Z</time>
      </trkpt>
      <trkpt lat="44.13865" lon="3.20857">
        <ele>688.4</ele>
        <time>2024-11-28T15:36:30.000Z</time>
      </trkpt>
      <trkpt lat="44.13873" lon="3.2085">
        <ele>688.9</ele>
        <time>2024-11-28T15:36:36.000Z</time>
      </trkpt>
      <trkpt lat="44.13875" lon="3.20837">
        <ele>690</ele>
        <time>2024-11-28T15:36:46.000Z</time>
      </trkpt>
      <trkpt lat="44.13872" lon="3.20824">
        <ele>690.5</ele>
        <time>2024-11-28T15:36:52.000Z</time>
      </trkpt>
      <trkpt lat="44.13867" lon="3.20812">
        <ele>691.3</ele>
        <time>2024-11-28T15:37:00.000Z</time>
      </trkpt>
      <trkpt lat="44.13861" lon="3.20803">
        <ele>692</ele>
        <time>2024-11-28T15:37:08.000Z</time>
      </trkpt>
      <trkpt lat="44.13855" lon="3.20793">
        <ele>692.3</ele>
        <time>2024-11-28T15:37:13.000Z</time>
      </trkpt>
      <trkpt lat="44.13846" lon="3.20797">
        <ele>692.7</ele>
        <time>2024-11-28T15:37:18.000Z</time>
      </trkpt>
      <trkpt lat="44.13836" lon="3.20794">
        <ele>693.4</ele>
        <time>2024-11-28T15:37:27.000Z</time>
      </trkpt>
      <trkpt lat="44.13828" lon="3.20803">
        <ele>694.6</ele>
        <time>2024-11-28T15:37:40.000Z</time>
      </trkpt>
      <trkpt lat="44.13836" lon="3.20796">
        <ele>693.9</ele>
        <time>2024-11-28T15:38:03.000Z</time>
      </trkpt>
      <trkpt lat="44.13845" lon="3.20804">
        <ele>693.5</ele>
        <time>2024-11-28T15:38:10.000Z</time>
      </trkpt>
      <trkpt lat="44.13851" lon="3.20815">
        <ele>693.3</ele>
        <time>2024-11-28T15:38:15.000Z</time>
      </trkpt>
      <trkpt lat="44.13855" lon="3.20827">
        <ele>693</ele>
        <time>2024-11-28T15:38:20.000Z</time>
      </trkpt>
      <trkpt lat="44.13845" lon="3.20832">
        <ele>692.3</ele>
        <time>2024-11-28T15:38:27.000Z</time>
      </trkpt>
      <trkpt lat="44.13835" lon="3.20834">
        <ele>691.8</ele>
        <time>2024-11-28T15:38:32.000Z</time>
      </trkpt>
      <trkpt lat="44.13827" lon="3.20842">
        <ele>691.4</ele>
        <time>2024-11-28T15:38:35.000Z</time>
      </trkpt>
      <trkpt lat="44.1382" lon="3.20852">
        <ele>690.8</ele>
        <time>2024-11-28T15:38:39.000Z</time>
      </trkpt>
      <trkpt lat="44.13811" lon="3.2086">
        <ele>690.3</ele>
        <time>2024-11-28T15:38:42.000Z</time>
      </trkpt>
      <trkpt lat="44.13803" lon="3.20853">
        <ele>689.1</ele>
        <time>2024-11-28T15:38:48.000Z</time>
      </trkpt>
      <trkpt lat="44.1381" lon="3.20861">
        <ele>688.5</ele>
        <time>2024-11-28T15:38:51.000Z</time>
      </trkpt>
      <trkpt lat="44.13819" lon="3.20868">
        <ele>689</ele>
        <time>2024-11-28T15:39:07.000Z</time>
      </trkpt>
      <trkpt lat="44.13804" lon="3.20866">
        <ele>691.6</ele>
        <time>2024-11-28T15:39:36.000Z</time>
      </trkpt>
      <trkpt lat="44.13795" lon="3.20864">
        <ele>694.7</ele>
        <time>2024-11-28T15:39:54.000Z</time>
      </trkpt>
      <trkpt lat="44.13782" lon="3.20852">
        <ele>701.7</ele>
        <time>2024-11-28T15:40:52.000Z</time>
      </trkpt>
      <trkpt lat="44.13761" lon="3.20837">
        <ele>712</ele>
        <time>2024-11-28T15:42:08.000Z</time>
      </trkpt>
      <trkpt lat="44.13753" lon="3.20831">
        <ele>715.2</ele>
        <time>2024-11-28T15:42:23.000Z</time>
      </trkpt>
      <trkpt lat="44.13744" lon="3.20826">
        <ele>718.6</ele>
        <time>2024-11-28T15:42:46.000Z</time>
      </trkpt>
      <trkpt lat="44.13733" lon="3.20824">
        <ele>722</ele>
        <time>2024-11-28T15:43:08.000Z</time>
      </trkpt>
      <trkpt lat="44.13727" lon="3.20834">
        <ele>724.7</ele>
        <time>2024-11-28T15:43:24.000Z</time>
      </trkpt>
      <trkpt lat="44.13721" lon="3.20844">
        <ele>727.7</ele>
        <time>2024-11-28T15:43:43.000Z</time>
      </trkpt>
      <trkpt lat="44.13711" lon="3.20842">
        <ele>730.3</ele>
        <time>2024-11-28T15:44:01.000Z</time>
      </trkpt>
      <trkpt lat="44.13703" lon="3.20848">
        <ele>732.8</ele>
        <time>2024-11-28T15:44:22.000Z</time>
      </trkpt>
      <trkpt lat="44.13694" lon="3.2085">
        <ele>734.8</ele>
        <time>2024-11-28T15:44:43.000Z</time>
      </trkpt>
      <trkpt lat="44.13686" lon="3.20856">
        <ele>735.3</ele>
        <time>2024-11-28T15:44:55.000Z</time>
      </trkpt>
      <trkpt lat="44.13677" lon="3.20859">
        <ele>736.2</ele>
        <time>2024-11-28T15:45:10.000Z</time>
      </trkpt>
      <trkpt lat="44.13667" lon="3.20861">
        <ele>737.3</ele>
        <time>2024-11-28T15:45:24.000Z</time>
      </trkpt>
      <trkpt lat="44.13658" lon="3.20864">
        <ele>738</ele>
        <time>2024-11-28T15:45:32.000Z</time>
      </trkpt>
      <trkpt lat="44.13649" lon="3.20865">
        <ele>739.1</ele>
        <time>2024-11-28T15:45:41.000Z</time>
      </trkpt>
      <trkpt lat="44.13639" lon="3.20866">
        <ele>739.9</ele>
        <time>2024-11-28T15:45:48.000Z</time>
      </trkpt>
      <trkpt lat="44.1363" lon="3.20869">
        <ele>740.7</ele>
        <time>2024-11-28T15:45:55.000Z</time>
      </trkpt>
      <trkpt lat="44.13621" lon="3.20874">
        <ele>742</ele>
        <time>2024-11-28T15:46:03.000Z</time>
      </trkpt>
      <trkpt lat="44.13613" lon="3.20878">
        <ele>743.5</ele>
        <time>2024-11-28T15:46:13.000Z</time>
      </trkpt>
      <trkpt lat="44.13603" lon="3.20882">
        <ele>745</ele>
        <time>2024-11-28T15:46:22.000Z</time>
      </trkpt>
      <trkpt lat="44.13594" lon="3.20886">
        <ele>745.6</ele>
        <time>2024-11-28T15:46:26.000Z</time>
      </trkpt>
      <trkpt lat="44.13586" lon="3.20888">
        <ele>746.8</ele>
        <time>2024-11-28T15:46:37.000Z</time>
      </trkpt>
      <trkpt lat="44.13576" lon="3.2089">
        <ele>747.2</ele>
        <time>2024-11-28T15:46:46.000Z</time>
      </trkpt>
      <trkpt lat="44.13566" lon="3.20893">
        <ele>747.5</ele>
        <time>2024-11-28T15:46:55.000Z</time>
      </trkpt>
      <trkpt lat="44.13557" lon="3.20895">
        <ele>747.6</ele>
        <time>2024-11-28T15:47:00.000Z</time>
      </trkpt>
      <trkpt lat="44.13547" lon="3.20899">
        <ele>747.7</ele>
        <time>2024-11-28T15:47:06.000Z</time>
      </trkpt>
      <trkpt lat="44.13538" lon="3.20903">
        <ele>748.4</ele>
        <time>2024-11-28T15:47:14.000Z</time>
      </trkpt>
      <trkpt lat="44.13529" lon="3.20905">
        <ele>749.3</ele>
        <time>2024-11-28T15:47:21.000Z</time>
      </trkpt>
      <trkpt lat="44.13519" lon="3.20916">
        <ele>753.5</ele>
        <time>2024-11-28T15:47:56.000Z</time>
      </trkpt>
      <trkpt lat="44.1351" lon="3.20921">
        <ele>755.8</ele>
        <time>2024-11-28T15:48:08.000Z</time>
      </trkpt>
      <trkpt lat="44.135" lon="3.20924">
        <ele>757.9</ele>
        <time>2024-11-28T15:48:28.000Z</time>
      </trkpt>
      <trkpt lat="44.1349" lon="3.20923">
        <ele>759.1</ele>
        <time>2024-11-28T15:48:55.000Z</time>
      </trkpt>
      <trkpt lat="44.13485" lon="3.20936">
        <ele>759.4</ele>
        <time>2024-11-28T15:49:27.000Z</time>
      </trkpt>
      <trkpt lat="44.13477" lon="3.20942">
        <ele>759.6</ele>
        <time>2024-11-28T15:49:33.000Z</time>
      </trkpt>
      <trkpt lat="44.13467" lon="3.2094">
        <ele>760.8</ele>
        <time>2024-11-28T15:49:41.000Z</time>
      </trkpt>
      <trkpt lat="44.13458" lon="3.20941">
        <ele>761.5</ele>
        <time>2024-11-28T15:49:50.000Z</time>
      </trkpt>
      <trkpt lat="44.13449" lon="3.20945">
        <ele>763.1</ele>
        <time>2024-11-28T15:49:59.000Z</time>
      </trkpt>
      <trkpt lat="44.1344" lon="3.20949">
        <ele>764.1</ele>
        <time>2024-11-28T15:50:07.000Z</time>
      </trkpt>
      <trkpt lat="44.13432" lon="3.20956">
        <ele>765.1</ele>
        <time>2024-11-28T15:50:15.000Z</time>
      </trkpt>
      <trkpt lat="44.13422" lon="3.20958">
        <ele>766.1</ele>
        <time>2024-11-28T15:50:21.000Z</time>
      </trkpt>
      <trkpt lat="44.13413" lon="3.20962">
        <ele>767</ele>
        <time>2024-11-28T15:50:28.000Z</time>
      </trkpt>
      <trkpt lat="44.13405" lon="3.2097">
        <ele>767.8</ele>
        <time>2024-11-28T15:50:33.000Z</time>
      </trkpt>
      <trkpt lat="44.13396" lon="3.20975">
        <ele>768.3</ele>
        <time>2024-11-28T15:50:40.000Z</time>
      </trkpt>
      <trkpt lat="44.13387" lon="3.20979">
        <ele>768.7</ele>
        <time>2024-11-28T15:50:47.000Z</time>
      </trkpt>
      <trkpt lat="44.13378" lon="3.2098">
        <ele>769.5</ele>
        <time>2024-11-28T15:50:55.000Z</time>
      </trkpt>
      <trkpt lat="44.13369" lon="3.20989">
        <ele>770.1</ele>
        <time>2024-11-28T15:51:05.000Z</time>
      </trkpt>
      <trkpt lat="44.13358" lon="3.20998">
        <ele>770.1</ele>
        <time>2024-11-28T15:51:09.000Z</time>
      </trkpt>
      <trkpt lat="44.13349" lon="3.21004">
        <ele>769.9</ele>
        <time>2024-11-28T15:51:13.000Z</time>
      </trkpt>
      <trkpt lat="44.13339" lon="3.21006">
        <ele>769.8</ele>
        <time>2024-11-28T15:51:20.000Z</time>
      </trkpt>
      <trkpt lat="44.13329" lon="3.21009">
        <ele>769.7</ele>
        <time>2024-11-28T15:51:24.000Z</time>
      </trkpt>
      <trkpt lat="44.1332" lon="3.21011">
        <ele>769</ele>
        <time>2024-11-28T15:51:32.000Z</time>
      </trkpt>
      <trkpt lat="44.13311" lon="3.21005">
        <ele>769</ele>
        <time>2024-11-28T15:51:37.000Z</time>
      </trkpt>
      <trkpt lat="44.13305" lon="3.20994">
        <ele>769.3</ele>
        <time>2024-11-28T15:51:42.000Z</time>
      </trkpt>
      <trkpt lat="44.13301" lon="3.20982">
        <ele>770.2</ele>
        <time>2024-11-28T15:51:52.000Z</time>
      </trkpt>
      <trkpt lat="44.13293" lon="3.20972">
        <ele>770.6</ele>
        <time>2024-11-28T15:51:56.000Z</time>
      </trkpt>
      <trkpt lat="44.13284" lon="3.20964">
        <ele>771.1</ele>
        <time>2024-11-28T15:52:01.000Z</time>
      </trkpt>
      <trkpt lat="44.13277" lon="3.20956">
        <ele>771.4</ele>
        <time>2024-11-28T15:52:10.000Z</time>
      </trkpt>
      <trkpt lat="44.1327" lon="3.20942">
        <ele>772.4</ele>
        <time>2024-11-28T15:53:19.000Z</time>
      </trkpt>
      <trkpt lat="44.13268" lon="3.20955">
        <ele>772.2</ele>
        <time>2024-11-28T15:53:33.000Z</time>
      </trkpt>
      <trkpt lat="44.13272" lon="3.20967">
        <ele>770</ele>
        <time>2024-11-28T15:54:04.000Z</time>
      </trkpt>
      <trkpt lat="44.13268" lon="3.20953">
        <ele>769.9</ele>
        <time>2024-11-28T15:54:08.000Z</time>
      </trkpt>
      <trkpt lat="44.1326" lon="3.20946">
        <ele>769.7</ele>
        <time>2024-11-28T15:54:16.000Z</time>
      </trkpt>
      <trkpt lat="44.13252" lon="3.2094">
        <ele>770.3</ele>
        <time>2024-11-28T15:55:25.000Z</time>
      </trkpt>
      <trkpt lat="44.13253" lon="3.20927">
        <ele>769.9</ele>
        <time>2024-11-28T15:55:31.000Z</time>
      </trkpt>
      <trkpt lat="44.13258" lon="3.20915">
        <ele>768.8</ele>
        <time>2024-11-28T15:55:37.000Z</time>
      </trkpt>
      <trkpt lat="44.13254" lon="3.20903">
        <ele>766.2</ele>
        <time>2024-11-28T15:55:45.000Z</time>
      </trkpt>
      <trkpt lat="44.13257" lon="3.20891">
        <ele>764.6</ele>
        <time>2024-11-28T15:55:49.000Z</time>
      </trkpt>
      <trkpt lat="44.13257" lon="3.20878">
        <ele>762.7</ele>
        <time>2024-11-28T15:55:53.000Z</time>
      </trkpt>
      <trkpt lat="44.13249" lon="3.2087">
        <ele>759.7</ele>
        <time>2024-11-28T15:56:00.000Z</time>
      </trkpt>
      <trkpt lat="44.13239" lon="3.20866">
        <ele>758.3</ele>
        <time>2024-11-28T15:56:04.000Z</time>
      </trkpt>
      <trkpt lat="44.13234" lon="3.20854">
        <ele>756.6</ele>
        <time>2024-11-28T15:56:08.000Z</time>
      </trkpt>
      <trkpt lat="44.13228" lon="3.20842">
        <ele>754.2</ele>
        <time>2024-11-28T15:56:14.000Z</time>
      </trkpt>
      <trkpt lat="44.13219" lon="3.20843">
        <ele>752.1</ele>
        <time>2024-11-28T15:56:20.000Z</time>
      </trkpt>
      <trkpt lat="44.13209" lon="3.20841">
        <ele>750.9</ele>
        <time>2024-11-28T15:56:23.000Z</time>
      </trkpt>
      <trkpt lat="44.132" lon="3.20835">
        <ele>748.4</ele>
        <time>2024-11-28T15:56:29.000Z</time>
      </trkpt>
      <trkpt lat="44.13192" lon="3.20843">
        <ele>746.5</ele>
        <time>2024-11-28T15:56:34.000Z</time>
      </trkpt>
      <trkpt lat="44.13182" lon="3.20846">
        <ele>745</ele>
        <time>2024-11-28T15:56:39.000Z</time>
      </trkpt>
      <trkpt lat="44.13173" lon="3.20847">
        <ele>743.5</ele>
        <time>2024-11-28T15:56:44.000Z</time>
      </trkpt>
      <trkpt lat="44.13161" lon="3.20852">
        <ele>742</ele>
        <time>2024-11-28T15:56:48.000Z</time>
      </trkpt>
      <trkpt lat="44.13152" lon="3.20859">
        <ele>740.7</ele>
        <time>2024-11-28T15:56:52.000Z</time>
      </trkpt>
      <trkpt lat="44.13143" lon="3.20861">
        <ele>739.6</ele>
        <time>2024-11-28T15:56:55.000Z</time>
      </trkpt>
      <trkpt lat="44.13135" lon="3.20851">
        <ele>737.9</ele>
        <time>2024-11-28T15:56:59.000Z</time>
      </trkpt>
      <trkpt lat="44.13126" lon="3.20846">
        <ele>736.1</ele>
        <time>2024-11-28T15:57:03.000Z</time>
      </trkpt>
      <trkpt lat="44.13117" lon="3.20844">
        <ele>734.1</ele>
        <time>2024-11-28T15:57:08.000Z</time>
      </trkpt>
      <trkpt lat="44.13108" lon="3.2084">
        <ele>732.8</ele>
        <time>2024-11-28T15:57:13.000Z</time>
      </trkpt>
      <trkpt lat="44.13099" lon="3.20834">
        <ele>731.4</ele>
        <time>2024-11-28T15:57:18.000Z</time>
      </trkpt>
      <trkpt lat="44.13089" lon="3.20833">
        <ele>730.1</ele>
        <time>2024-11-28T15:57:23.000Z</time>
      </trkpt>
      <trkpt lat="44.13081" lon="3.20825">
        <ele>729.5</ele>
        <time>2024-11-28T15:57:26.000Z</time>
      </trkpt>
      <trkpt lat="44.13069" lon="3.20819">
        <ele>728.9</ele>
        <time>2024-11-28T15:57:29.000Z</time>
      </trkpt>
      <trkpt lat="44.13058" lon="3.20819">
        <ele>728.1</ele>
        <time>2024-11-28T15:57:32.000Z</time>
      </trkpt>
      <trkpt lat="44.13048" lon="3.2082">
        <ele>727.7</ele>
        <time>2024-11-28T15:57:34.000Z</time>
      </trkpt>
      <trkpt lat="44.13036" lon="3.20822">
        <ele>726.9</ele>
        <time>2024-11-28T15:57:37.000Z</time>
      </trkpt>
      <trkpt lat="44.13028" lon="3.2083">
        <ele>726.3</ele>
        <time>2024-11-28T15:57:40.000Z</time>
      </trkpt>
      <trkpt lat="44.13019" lon="3.20826">
        <ele>725.2</ele>
        <time>2024-11-28T15:57:45.000Z</time>
      </trkpt>
      <trkpt lat="44.1301" lon="3.20823">
        <ele>724</ele>
        <time>2024-11-28T15:57:49.000Z</time>
      </trkpt>
      <trkpt lat="44.12999" lon="3.20822">
        <ele>722.9</ele>
        <time>2024-11-28T15:57:53.000Z</time>
      </trkpt>
      <trkpt lat="44.1299" lon="3.20823">
        <ele>722</ele>
        <time>2024-11-28T15:57:57.000Z</time>
      </trkpt>
      <trkpt lat="44.12983" lon="3.20833">
        <ele>719.6</ele>
        <time>2024-11-28T15:58:06.000Z</time>
      </trkpt>
      <trkpt lat="44.12983" lon="3.20845">
        <ele>718</ele>
        <time>2024-11-28T15:58:10.000Z</time>
      </trkpt>
      <trkpt lat="44.12974" lon="3.20852">
        <ele>715.5</ele>
        <time>2024-11-28T15:58:16.000Z</time>
      </trkpt>
      <trkpt lat="44.12967" lon="3.20862">
        <ele>713.8</ele>
        <time>2024-11-28T15:58:20.000Z</time>
      </trkpt>
      <trkpt lat="44.12964" lon="3.20874">
        <ele>711.3</ele>
        <time>2024-11-28T15:58:27.000Z</time>
      </trkpt>
      <trkpt lat="44.12966" lon="3.20888">
        <ele>709.5</ele>
        <time>2024-11-28T15:58:32.000Z</time>
      </trkpt>
      <trkpt lat="44.12964" lon="3.20904">
        <ele>707.7</ele>
        <time>2024-11-28T15:58:37.000Z</time>
      </trkpt>
      <trkpt lat="44.12962" lon="3.20918">
        <ele>706.4</ele>
        <time>2024-11-28T15:58:42.000Z</time>
      </trkpt>
      <trkpt lat="44.1296" lon="3.20933">
        <ele>705.1</ele>
        <time>2024-11-28T15:58:47.000Z</time>
      </trkpt>
      <trkpt lat="44.12961" lon="3.20947">
        <ele>704.2</ele>
        <time>2024-11-28T15:58:50.000Z</time>
      </trkpt>
      <trkpt lat="44.12964" lon="3.20963">
        <ele>703.3</ele>
        <time>2024-11-28T15:58:53.000Z</time>
      </trkpt>
      <trkpt lat="44.12966" lon="3.20977">
        <ele>702.1</ele>
        <time>2024-11-28T15:58:56.000Z</time>
      </trkpt>
      <trkpt lat="44.12961" lon="3.20991">
        <ele>700.1</ele>
        <time>2024-11-28T15:59:00.000Z</time>
      </trkpt>
      <trkpt lat="44.12957" lon="3.21005">
        <ele>698.5</ele>
        <time>2024-11-28T15:59:04.000Z</time>
      </trkpt>
      <trkpt lat="44.12952" lon="3.21018">
        <ele>695.8</ele>
        <time>2024-11-28T15:59:10.000Z</time>
      </trkpt>
      <trkpt lat="44.12947" lon="3.21031">
        <ele>693.6</ele>
        <time>2024-11-28T15:59:14.000Z</time>
      </trkpt>
      <trkpt lat="44.12952" lon="3.21047">
        <ele>691.8</ele>
        <time>2024-11-28T15:59:18.000Z</time>
      </trkpt>
      <trkpt lat="44.1296" lon="3.21058">
        <ele>690.4</ele>
        <time>2024-11-28T15:59:21.000Z</time>
      </trkpt>
      <trkpt lat="44.1297" lon="3.21071">
        <ele>689</ele>
        <time>2024-11-28T15:59:24.000Z</time>
      </trkpt>
      <trkpt lat="44.12978" lon="3.21081">
        <ele>687.6</ele>
        <time>2024-11-28T15:59:27.000Z</time>
      </trkpt>
      <trkpt lat="44.12981" lon="3.21096">
        <ele>681.9</ele>
        <time>2024-11-28T15:59:39.000Z</time>
      </trkpt>
      <trkpt lat="44.1299" lon="3.21099">
        <ele>674.7</ele>
        <time>2024-11-28T16:00:32.000Z</time>
      </trkpt>
      <trkpt lat="44.12981" lon="3.211">
        <ele>673.6</ele>
        <time>2024-11-28T16:00:59.000Z</time>
      </trkpt>
      <trkpt lat="44.12972" lon="3.21101">
        <ele>673.2</ele>
        <time>2024-11-28T16:01:01.000Z</time>
      </trkpt>
      <trkpt lat="44.12961" lon="3.21098">
        <ele>672.8</ele>
        <time>2024-11-28T16:01:03.000Z</time>
      </trkpt>
      <trkpt lat="44.12951" lon="3.21094">
        <ele>672.1</ele>
        <time>2024-11-28T16:01:06.000Z</time>
      </trkpt>
      <trkpt lat="44.12943" lon="3.21086">
        <ele>670.8</ele>
        <time>2024-11-28T16:01:10.000Z</time>
      </trkpt>
      <trkpt lat="44.12933" lon="3.21081">
        <ele>669.7</ele>
        <time>2024-11-28T16:01:13.000Z</time>
      </trkpt>
      <trkpt lat="44.12927" lon="3.21071">
        <ele>667.7</ele>
        <time>2024-11-28T16:01:17.000Z</time>
      </trkpt>
      <trkpt lat="44.12922" lon="3.21083">
        <ele>658.1</ele>
        <time>2024-11-28T16:01:37.000Z</time>
      </trkpt>
      <trkpt lat="44.12914" lon="3.21091">
        <ele>655.7</ele>
        <time>2024-11-28T16:01:43.000Z</time>
      </trkpt>
      <trkpt lat="44.12904" lon="3.21098">
        <ele>649.8</ele>
        <time>2024-11-28T16:02:47.000Z</time>
      </trkpt>
      <trkpt lat="44.12896" lon="3.21107">
        <ele>648.4</ele>
        <time>2024-11-28T16:02:55.000Z</time>
      </trkpt>
      <trkpt lat="44.12888" lon="3.21115">
        <ele>647.3</ele>
        <time>2024-11-28T16:02:59.000Z</time>
      </trkpt>
      <trkpt lat="44.12876" lon="3.21119">
        <ele>645.9</ele>
        <time>2024-11-28T16:03:03.000Z</time>
      </trkpt>
      <trkpt lat="44.12865" lon="3.21123">
        <ele>644.8</ele>
        <time>2024-11-28T16:03:06.000Z</time>
      </trkpt>
      <trkpt lat="44.12853" lon="3.21125">
        <ele>643.6</ele>
        <time>2024-11-28T16:03:09.000Z</time>
      </trkpt>
      <trkpt lat="44.12843" lon="3.21125">
        <ele>642.1</ele>
        <time>2024-11-28T16:03:13.000Z</time>
      </trkpt>
      <trkpt lat="44.12831" lon="3.21124">
        <ele>640.1</ele>
        <time>2024-11-28T16:03:17.000Z</time>
      </trkpt>
      <trkpt lat="44.1282" lon="3.21129">
        <ele>637.1</ele>
        <time>2024-11-28T16:03:22.000Z</time>
      </trkpt>
      <trkpt lat="44.12821" lon="3.21143">
        <ele>633.4</ele>
        <time>2024-11-28T16:03:29.000Z</time>
      </trkpt>
      <trkpt lat="44.12811" lon="3.21151">
        <ele>629.1</ele>
        <time>2024-11-28T16:03:38.000Z</time>
      </trkpt>
      <trkpt lat="44.12801" lon="3.21151">
        <ele>627.6</ele>
        <time>2024-11-28T16:03:41.000Z</time>
      </trkpt>
      <trkpt lat="44.12792" lon="3.21148">
        <ele>625</ele>
        <time>2024-11-28T16:03:47.000Z</time>
      </trkpt>
      <trkpt lat="44.12781" lon="3.21149">
        <ele>620.3</ele>
        <time>2024-11-28T16:04:14.000Z</time>
      </trkpt>
      <trkpt lat="44.1277" lon="3.21153">
        <ele>619.6</ele>
        <time>2024-11-28T16:04:18.000Z</time>
      </trkpt>
      <trkpt lat="44.12761" lon="3.21158">
        <ele>618.7</ele>
        <time>2024-11-28T16:04:22.000Z</time>
      </trkpt>
      <trkpt lat="44.12769" lon="3.21163">
        <ele>617.2</ele>
        <time>2024-11-28T16:04:28.000Z</time>
      </trkpt>
      <trkpt lat="44.12766" lon="3.21177">
        <ele>611</ele>
        <time>2024-11-28T16:04:52.000Z</time>
      </trkpt>
      <trkpt lat="44.12756" lon="3.21182">
        <ele>609.6</ele>
        <time>2024-11-28T16:04:56.000Z</time>
      </trkpt>
      <trkpt lat="44.12746" lon="3.21182">
        <ele>608.4</ele>
        <time>2024-11-28T16:04:59.000Z</time>
      </trkpt>
      <trkpt lat="44.12736" lon="3.21184">
        <ele>606.9</ele>
        <time>2024-11-28T16:05:02.000Z</time>
      </trkpt>
      <trkpt lat="44.12726" lon="3.21186">
        <ele>605.5</ele>
        <time>2024-11-28T16:05:05.000Z</time>
      </trkpt>
      <trkpt lat="44.12713" lon="3.21186">
        <ele>603.9</ele>
        <time>2024-11-28T16:05:08.000Z</time>
      </trkpt>
      <trkpt lat="44.12705" lon="3.21183">
        <ele>602.9</ele>
        <time>2024-11-28T16:05:10.000Z</time>
      </trkpt>
      <trkpt lat="44.12694" lon="3.21177">
        <ele>601.3</ele>
        <time>2024-11-28T16:05:13.000Z</time>
      </trkpt>
      <trkpt lat="44.12683" lon="3.21174">
        <ele>599.7</ele>
        <time>2024-11-28T16:05:16.000Z</time>
      </trkpt>
      <trkpt lat="44.12674" lon="3.2117">
        <ele>598</ele>
        <time>2024-11-28T16:05:19.000Z</time>
      </trkpt>
      <trkpt lat="44.12665" lon="3.21164">
        <ele>596</ele>
        <time>2024-11-28T16:05:22.000Z</time>
      </trkpt>
      <trkpt lat="44.12657" lon="3.21157">
        <ele>590.5</ele>
        <time>2024-11-28T16:05:32.000Z</time>
      </trkpt>
      <trkpt lat="44.12647" lon="3.21157">
        <ele>584</ele>
        <time>2024-11-28T16:05:59.000Z</time>
      </trkpt>
      <trkpt lat="44.12648" lon="3.21171">
        <ele>582.6</ele>
        <time>2024-11-28T16:07:50.000Z</time>
      </trkpt>
      <trkpt lat="44.12656" lon="3.21178">
        <ele>582.5</ele>
        <time>2024-11-28T16:07:54.000Z</time>
      </trkpt>
      <trkpt lat="44.12665" lon="3.21182">
        <ele>582</ele>
        <time>2024-11-28T16:07:58.000Z</time>
      </trkpt>
      <trkpt lat="44.12676" lon="3.21187">
        <ele>580.5</ele>
        <time>2024-11-28T16:08:03.000Z</time>
      </trkpt>
      <trkpt lat="44.12683" lon="3.21194">
        <ele>579.3</ele>
        <time>2024-11-28T16:08:06.000Z</time>
      </trkpt>
      <trkpt lat="44.1269" lon="3.21203">
        <ele>577.7</ele>
        <time>2024-11-28T16:08:09.000Z</time>
      </trkpt>
      <trkpt lat="44.12693" lon="3.21219">
        <ele>575.5</ele>
        <time>2024-11-28T16:08:13.000Z</time>
      </trkpt>
      <trkpt lat="44.12683" lon="3.21228">
        <ele>573</ele>
        <time>2024-11-28T16:08:17.000Z</time>
      </trkpt>
      <trkpt lat="44.12674" lon="3.21242">
        <ele>571.2</ele>
        <time>2024-11-28T16:08:20.000Z</time>
      </trkpt>
      <trkpt lat="44.12665" lon="3.21248">
        <ele>570</ele>
        <time>2024-11-28T16:08:22.000Z</time>
      </trkpt>
      <trkpt lat="44.12652" lon="3.21252">
        <ele>567.9</ele>
        <time>2024-11-28T16:08:25.000Z</time>
      </trkpt>
      <trkpt lat="44.12638" lon="3.21251">
        <ele>566.6</ele>
        <time>2024-11-28T16:08:27.000Z</time>
      </trkpt>
      <trkpt lat="44.12625" lon="3.21252">
        <ele>564.3</ele>
        <time>2024-11-28T16:08:30.000Z</time>
      </trkpt>
      <trkpt lat="44.12612" lon="3.21251">
        <ele>561.9</ele>
        <time>2024-11-28T16:08:33.000Z</time>
      </trkpt>
      <trkpt lat="44.12603" lon="3.21245">
        <ele>560.2</ele>
        <time>2024-11-28T16:08:35.000Z</time>
      </trkpt>
      <trkpt lat="44.12594" lon="3.21242">
        <ele>557.8</ele>
        <time>2024-11-28T16:08:38.000Z</time>
      </trkpt>
      <trkpt lat="44.12584" lon="3.21252">
        <ele>555.2</ele>
        <time>2024-11-28T16:08:41.000Z</time>
      </trkpt>
      <trkpt lat="44.12574" lon="3.21263">
        <ele>552.7</ele>
        <time>2024-11-28T16:08:44.000Z</time>
      </trkpt>
      <trkpt lat="44.12565" lon="3.21268">
        <ele>550.9</ele>
        <time>2024-11-28T16:08:46.000Z</time>
      </trkpt>
      <trkpt lat="44.12557" lon="3.21274">
        <ele>549.3</ele>
        <time>2024-11-28T16:08:48.000Z</time>
      </trkpt>
      <trkpt lat="44.12549" lon="3.21281">
        <ele>547.7</ele>
        <time>2024-11-28T16:08:50.000Z</time>
      </trkpt>
      <trkpt lat="44.12539" lon="3.21286">
        <ele>545.4</ele>
        <time>2024-11-28T16:08:53.000Z</time>
      </trkpt>
      <trkpt lat="44.12529" lon="3.21289">
        <ele>544.1</ele>
        <time>2024-11-28T16:08:55.000Z</time>
      </trkpt>
      <trkpt lat="44.12518" lon="3.21299">
        <ele>541.9</ele>
        <time>2024-11-28T16:08:58.000Z</time>
      </trkpt>
      <trkpt lat="44.12509" lon="3.21306">
        <ele>540.4</ele>
        <time>2024-11-28T16:09:01.000Z</time>
      </trkpt>
      <trkpt lat="44.12502" lon="3.21314">
        <ele>538.7</ele>
        <time>2024-11-28T16:09:07.000Z</time>
      </trkpt>
      <trkpt lat="44.12492" lon="3.21309">
        <ele>537.7</ele>
        <time>2024-11-28T16:09:11.000Z</time>
      </trkpt>
      <trkpt lat="44.12479" lon="3.21308">
        <ele>536.9</ele>
        <time>2024-11-28T16:09:14.000Z</time>
      </trkpt>
      <trkpt lat="44.1247" lon="3.21307">
        <ele>536.2</ele>
        <time>2024-11-28T16:09:16.000Z</time>
      </trkpt>
      <trkpt lat="44.12457" lon="3.21307">
        <ele>535.3</ele>
        <time>2024-11-28T16:09:19.000Z</time>
      </trkpt>
      <trkpt lat="44.12444" lon="3.21309">
        <ele>534.7</ele>
        <time>2024-11-28T16:09:22.000Z</time>
      </trkpt>
      <trkpt lat="44.12435" lon="3.21312">
        <ele>534.2</ele>
        <time>2024-11-28T16:09:25.000Z</time>
      </trkpt>
      <trkpt lat="44.12426" lon="3.21318">
        <ele>533.5</ele>
        <time>2024-11-28T16:09:29.000Z</time>
      </trkpt>
      <trkpt lat="44.12417" lon="3.2132">
        <ele>533.1</ele>
        <time>2024-11-28T16:09:32.000Z</time>
      </trkpt>
      <trkpt lat="44.12406" lon="3.21325">
        <ele>532.7</ele>
        <time>2024-11-28T16:09:35.000Z</time>
      </trkpt>
      <trkpt lat="44.12396" lon="3.21329">
        <ele>532.3</ele>
        <time>2024-11-28T16:09:38.000Z</time>
      </trkpt>
      <trkpt lat="44.12387" lon="3.21335">
        <ele>532</ele>
        <time>2024-11-28T16:09:41.000Z</time>
      </trkpt>
      <trkpt lat="44.12379" lon="3.21343">
        <ele>531.7</ele>
        <time>2024-11-28T16:09:45.000Z</time>
      </trkpt>
      <trkpt lat="44.12373" lon="3.21354">
        <ele>532.2</ele>
        <time>2024-11-28T16:09:50.000Z</time>
      </trkpt>
      <trkpt lat="44.12367" lon="3.21365">
        <ele>532.8</ele>
        <time>2024-11-28T16:09:57.000Z</time>
      </trkpt>
      <trkpt lat="44.12362" lon="3.21377">
        <ele>533.1</ele>
        <time>2024-11-28T16:10:01.000Z</time>
      </trkpt>
      <trkpt lat="44.12353" lon="3.21384">
        <ele>533.5</ele>
        <time>2024-11-28T16:10:06.000Z</time>
      </trkpt>
      <trkpt lat="44.12344" lon="3.2139">
        <ele>533.8</ele>
        <time>2024-11-28T16:10:10.000Z</time>
      </trkpt>
      <trkpt lat="44.12334" lon="3.21391">
        <ele>533.9</ele>
        <time>2024-11-28T16:10:14.000Z</time>
      </trkpt>
      <trkpt lat="44.12324" lon="3.21391">
        <ele>534</ele>
        <time>2024-11-28T16:10:17.000Z</time>
      </trkpt>
      <trkpt lat="44.12311" lon="3.21391">
        <ele>533.7</ele>
        <time>2024-11-28T16:10:20.000Z</time>
      </trkpt>
      <trkpt lat="44.123" lon="3.21396">
        <ele>533.3</ele>
        <time>2024-11-28T16:10:23.000Z</time>
      </trkpt>
      <trkpt lat="44.1229" lon="3.21401">
        <ele>532.5</ele>
        <time>2024-11-28T16:10:26.000Z</time>
      </trkpt>
      <trkpt lat="44.1228" lon="3.21409">
        <ele>531.6</ele>
        <time>2024-11-28T16:10:29.000Z</time>
      </trkpt>
      <trkpt lat="44.1227" lon="3.21414">
        <ele>530.4</ele>
        <time>2024-11-28T16:10:32.000Z</time>
      </trkpt>
      <trkpt lat="44.1226" lon="3.21416">
        <ele>529.5</ele>
        <time>2024-11-28T16:10:34.000Z</time>
      </trkpt>
      <trkpt lat="44.12251" lon="3.21426">
        <ele>528</ele>
        <time>2024-11-28T16:10:37.000Z</time>
      </trkpt>
      <trkpt lat="44.1224" lon="3.21432">
        <ele>526.5</ele>
        <time>2024-11-28T16:10:40.000Z</time>
      </trkpt>
      <trkpt lat="44.12234" lon="3.21444">
        <ele>524.3</ele>
        <time>2024-11-28T16:10:44.000Z</time>
      </trkpt>
      <trkpt lat="44.12228" lon="3.21459">
        <ele>522.3</ele>
        <time>2024-11-28T16:10:48.000Z</time>
      </trkpt>
      <trkpt lat="44.12224" lon="3.21473">
        <ele>520.8</ele>
        <time>2024-11-28T16:10:51.000Z</time>
      </trkpt>
      <trkpt lat="44.12223" lon="3.21491">
        <ele>519.2</ele>
        <time>2024-11-28T16:10:54.000Z</time>
      </trkpt>
      <trkpt lat="44.12225" lon="3.21506">
        <ele>517.7</ele>
        <time>2024-11-28T16:10:57.000Z</time>
      </trkpt>
      <trkpt lat="44.12226" lon="3.21522">
        <ele>516.4</ele>
        <time>2024-11-28T16:11:00.000Z</time>
      </trkpt>
      <trkpt lat="44.12226" lon="3.21535">
        <ele>514.8</ele>
        <time>2024-11-28T16:11:03.000Z</time>
      </trkpt>
      <trkpt lat="44.12227" lon="3.2155">
        <ele>512.9</ele>
        <time>2024-11-28T16:11:06.000Z</time>
      </trkpt>
      <trkpt lat="44.12229" lon="3.21567">
        <ele>511.4</ele>
        <time>2024-11-28T16:11:09.000Z</time>
      </trkpt>
      <trkpt lat="44.12233" lon="3.21581">
        <ele>510</ele>
        <time>2024-11-28T16:11:12.000Z</time>
      </trkpt>
      <trkpt lat="44.12238" lon="3.21592">
        <ele>508.8</ele>
        <time>2024-11-28T16:11:15.000Z</time>
      </trkpt>
      <trkpt lat="44.12244" lon="3.21603">
        <ele>507.4</ele>
        <time>2024-11-28T16:11:18.000Z</time>
      </trkpt>
      <trkpt lat="44.12245" lon="3.21616">
        <ele>506</ele>
        <time>2024-11-28T16:11:21.000Z</time>
      </trkpt>
      <trkpt lat="44.12247" lon="3.21631">
        <ele>504.4</ele>
        <time>2024-11-28T16:11:24.000Z</time>
      </trkpt>
      <trkpt lat="44.12249" lon="3.21647">
        <ele>502.8</ele>
        <time>2024-11-28T16:11:27.000Z</time>
      </trkpt>
      <trkpt lat="44.12248" lon="3.21661">
        <ele>501.2</ele>
        <time>2024-11-28T16:11:30.000Z</time>
      </trkpt>
      <trkpt lat="44.12257" lon="3.21666">
        <ele>499.3</ele>
        <time>2024-11-28T16:11:34.000Z</time>
      </trkpt>
      <trkpt lat="44.12268" lon="3.21671">
        <ele>497.8</ele>
        <time>2024-11-28T16:11:38.000Z</time>
      </trkpt>
      <trkpt lat="44.12277" lon="3.21677">
        <ele>496.8</ele>
        <time>2024-11-28T16:11:41.000Z</time>
      </trkpt>
      <trkpt lat="44.12289" lon="3.21684">
        <ele>495.8</ele>
        <time>2024-11-28T16:11:44.000Z</time>
      </trkpt>
      <trkpt lat="44.12298" lon="3.21689">
        <ele>495</ele>
        <time>2024-11-28T16:11:47.000Z</time>
      </trkpt>
      <trkpt lat="44.12308" lon="3.21692">
        <ele>494.3</ele>
        <time>2024-11-28T16:11:52.000Z</time>
      </trkpt>
      <trkpt lat="44.12318" lon="3.21698">
        <ele>494</ele>
        <time>2024-11-28T16:11:58.000Z</time>
      </trkpt>
      <trkpt lat="44.12326" lon="3.21702">
        <ele>494.2</ele>
        <time>2024-11-28T16:12:04.000Z</time>
      </trkpt>
      <trkpt lat="44.12334" lon="3.21712">
        <ele>494.9</ele>
        <time>2024-11-28T16:12:13.000Z</time>
      </trkpt>
      <trkpt lat="44.1234" lon="3.21722">
        <ele>495.1</ele>
        <time>2024-11-28T16:12:18.000Z</time>
      </trkpt>
      <trkpt lat="44.12348" lon="3.21733">
        <ele>495.1</ele>
        <time>2024-11-28T16:12:23.000Z</time>
      </trkpt>
      <trkpt lat="44.12356" lon="3.21741">
        <ele>495.1</ele>
        <time>2024-11-28T16:12:27.000Z</time>
      </trkpt>
      <trkpt lat="44.12365" lon="3.21749">
        <ele>494.8</ele>
        <time>2024-11-28T16:12:31.000Z</time>
      </trkpt>
      <trkpt lat="44.12374" lon="3.21759">
        <ele>494.4</ele>
        <time>2024-11-28T16:12:35.000Z</time>
      </trkpt>
      <trkpt lat="44.12379" lon="3.21775">
        <ele>493.9</ele>
        <time>2024-11-28T16:12:38.000Z</time>
      </trkpt>
      <trkpt lat="44.12383" lon="3.21791">
        <ele>493.2</ele>
        <time>2024-11-28T16:12:41.000Z</time>
      </trkpt>
      <trkpt lat="44.12382" lon="3.21805">
        <ele>492.3</ele>
        <time>2024-11-28T16:12:44.000Z</time>
      </trkpt>
      <trkpt lat="44.12381" lon="3.21818">
        <ele>489.9</ele>
        <time>2024-11-28T16:12:51.000Z</time>
      </trkpt>
      <trkpt lat="44.12378" lon="3.21831">
        <ele>488.7</ele>
        <time>2024-11-28T16:12:54.000Z</time>
      </trkpt>
      <trkpt lat="44.1238" lon="3.21847">
        <ele>486.5</ele>
        <time>2024-11-28T16:12:58.000Z</time>
      </trkpt>
      <trkpt lat="44.12385" lon="3.21861">
        <ele>484.2</ele>
        <time>2024-11-28T16:13:03.000Z</time>
      </trkpt>
      <trkpt lat="44.12388" lon="3.21876">
        <ele>482.3</ele>
        <time>2024-11-28T16:13:07.000Z</time>
      </trkpt>
      <trkpt lat="44.12391" lon="3.21891">
        <ele>480.6</ele>
        <time>2024-11-28T16:13:10.000Z</time>
      </trkpt>
      <trkpt lat="44.12394" lon="3.21905">
        <ele>478.3</ele>
        <time>2024-11-28T16:13:14.000Z</time>
      </trkpt>
      <trkpt lat="44.12394" lon="3.21918">
        <ele>475.7</ele>
        <time>2024-11-28T16:13:18.000Z</time>
      </trkpt>
      <trkpt lat="44.12391" lon="3.21932">
        <ele>473.4</ele>
        <time>2024-11-28T16:13:22.000Z</time>
      </trkpt>
      <trkpt lat="44.12391" lon="3.21948">
        <ele>470.8</ele>
        <time>2024-11-28T16:13:26.000Z</time>
      </trkpt>
      <trkpt lat="44.12388" lon="3.21965">
        <ele>468.8</ele>
        <time>2024-11-28T16:13:29.000Z</time>
      </trkpt>
      <trkpt lat="44.12388" lon="3.21982">
        <ele>466.9</ele>
        <time>2024-11-28T16:13:32.000Z</time>
      </trkpt>
      <trkpt lat="44.12389" lon="3.21996">
        <ele>465</ele>
        <time>2024-11-28T16:13:35.000Z</time>
      </trkpt>
      <trkpt lat="44.12392" lon="3.22008">
        <ele>463.4</ele>
        <time>2024-11-28T16:13:38.000Z</time>
      </trkpt>
      <trkpt lat="44.12399" lon="3.22016">
        <ele>462</ele>
        <time>2024-11-28T16:13:41.000Z</time>
      </trkpt>
      <trkpt lat="44.1241" lon="3.22019">
        <ele>460.4</ele>
        <time>2024-11-28T16:13:45.000Z</time>
      </trkpt>
      <trkpt lat="44.12418" lon="3.22028">
        <ele>457.9</ele>
        <time>2024-11-28T16:13:50.000Z</time>
      </trkpt>
      <trkpt lat="44.12418" lon="3.22042">
        <ele>455.9</ele>
        <time>2024-11-28T16:13:54.000Z</time>
      </trkpt>
      <trkpt lat="44.12416" lon="3.22056">
        <ele>453.7</ele>
        <time>2024-11-28T16:13:58.000Z</time>
      </trkpt>
      <trkpt lat="44.12412" lon="3.2207">
        <ele>451.7</ele>
        <time>2024-11-28T16:14:02.000Z</time>
      </trkpt>
      <trkpt lat="44.12411" lon="3.22083">
        <ele>450.1</ele>
        <time>2024-11-28T16:14:05.000Z</time>
      </trkpt>
      <trkpt lat="44.12402" lon="3.22091">
        <ele>447.7</ele>
        <time>2024-11-28T16:14:09.000Z</time>
      </trkpt>
      <trkpt lat="44.12397" lon="3.22103">
        <ele>445.1</ele>
        <time>2024-11-28T16:14:13.000Z</time>
      </trkpt>
      <trkpt lat="44.12393" lon="3.22115">
        <ele>442.3</ele>
        <time>2024-11-28T16:14:17.000Z</time>
      </trkpt>
      <trkpt lat="44.12385" lon="3.22122">
        <ele>433.1</ele>
        <time>2024-11-28T16:14:32.000Z</time>
      </trkpt>
      <trkpt lat="44.12378" lon="3.22134">
        <ele>430.4</ele>
        <time>2024-11-28T16:14:37.000Z</time>
      </trkpt>
      <trkpt lat="44.1237" lon="3.22142">
        <ele>428.1</ele>
        <time>2024-11-28T16:14:41.000Z</time>
      </trkpt>
      <trkpt lat="44.12364" lon="3.22152">
        <ele>423</ele>
        <time>2024-11-28T16:14:50.000Z</time>
      </trkpt>
      <trkpt lat="44.1237" lon="3.22162">
        <ele>421.6</ele>
        <time>2024-11-28T16:14:53.000Z</time>
      </trkpt>
      <trkpt lat="44.12379" lon="3.22173">
        <ele>420.5</ele>
        <time>2024-11-28T16:14:56.000Z</time>
      </trkpt>
      <trkpt lat="44.12388" lon="3.22183">
        <ele>419.4</ele>
        <time>2024-11-28T16:14:59.000Z</time>
      </trkpt>
      <trkpt lat="44.12395" lon="3.22192">
        <ele>418.5</ele>
        <time>2024-11-28T16:15:02.000Z</time>
      </trkpt>
      <trkpt lat="44.12403" lon="3.22199">
        <ele>417.1</ele>
        <time>2024-11-28T16:15:07.000Z</time>
      </trkpt>
      <trkpt lat="44.12409" lon="3.2221">
        <ele>414</ele>
        <time>2024-11-28T16:15:15.000Z</time>
      </trkpt>
      <trkpt lat="44.12417" lon="3.22219">
        <ele>411.6</ele>
        <time>2024-11-28T16:15:20.000Z</time>
      </trkpt>
      <trkpt lat="44.12425" lon="3.22227">
        <ele>409.1</ele>
        <time>2024-11-28T16:15:25.000Z</time>
      </trkpt>
      <trkpt lat="44.12419" lon="3.22239">
        <ele>406.8</ele>
        <time>2024-11-28T16:15:30.000Z</time>
      </trkpt>
      <trkpt lat="44.12416" lon="3.22252">
        <ele>405.8</ele>
        <time>2024-11-28T16:15:35.000Z</time>
      </trkpt>
      <trkpt lat="44.12405" lon="3.22257">
        <ele>403.2</ele>
        <time>2024-11-28T16:16:20.000Z</time>
      </trkpt>
      <trkpt lat="44.12396" lon="3.22256">
        <ele>403.2</ele>
        <time>2024-11-28T16:16:22.000Z</time>
      </trkpt>
      <trkpt lat="44.12387" lon="3.22256">
        <ele>403.2</ele>
        <time>2024-11-28T16:16:24.000Z</time>
      </trkpt>
      <trkpt lat="44.12374" lon="3.22251">
        <ele>403.2</ele>
        <time>2024-11-28T16:16:27.000Z</time>
      </trkpt>
    </trkseg>
  </trk>
</gpx>